sensor_id;sensor_type;location;lat;lon;timestamp;P1;durP1;ratioP1;P2;durP2;ratioP2
5349;SDS011;2697;42.144;24.794;2022-08-19T00:00:28;14.40;;;7.23;;
5349;SDS011;2697;42.144;24.794;2022-08-19T00:02:54;11.37;;;7.30;;
5349;SDS011;2697;42.144;24.794;2022-08-19T00:05:21;13.90;;;8.10;;
5349;SDS011;2697;42.144;24.794;2022-08-19T00:07:47;22.13;;;7.30;;
5349;SDS011;2697;42.144;24.794;2022-08-19T00:10:14;17.23;;;8.10;;
5349;SDS011;2697;42.144;24.794;2022-08-19T00:12:40;16.93;;;6.83;;
5349;SDS011;2697;42.144;24.794;2022-08-19T00:15:07;10.60;;;6.93;;
5349;SDS011;2697;42.144;24.794;2022-08-19T00:17:37;18.43;;;8.13;;
5349;SDS011;2697;42.144;24.794;2022-08-19T00:20:06;16.53;;;7.20;;
5349;SDS011;2697;42.144;24.794;2022-08-19T00:22:33;10.90;;;8.10;;
5349;SDS011;2697;42.144;24.794;2022-08-19T00:24:58;14.77;;;7.43;;
5349;SDS011;2697;42.144;24.794;2022-08-19T00:27:24;14.00;;;8.27;;
5349;SDS011;2697;42.144;24.794;2022-08-19T00:29:49;13.63;;;7.93;;
5349;SDS011;2697;42.144;24.794;2022-08-19T00:32:15;14.47;;;7.60;;
5349;SDS011;2697;42.144;24.794;2022-08-19T00:34:42;11.07;;;8.30;;
5349;SDS011;2697;42.144;24.794;2022-08-19T00:37:08;16.13;;;8.57;;
5349;SDS011;2697;42.144;24.794;2022-08-19T00:39:34;14.27;;;8.63;;
5349;SDS011;2697;42.144;24.794;2022-08-19T00:42:00;14.43;;;7.73;;
5349;SDS011;2697;42.144;24.794;2022-08-19T00:44:26;21.70;;;9.50;;
5349;SDS011;2697;42.144;24.794;2022-08-19T00:46:54;17.27;;;8.37;;
5349;SDS011;2697;42.144;24.794;2022-08-19T00:51:47;15.43;;;8.50;;
5349;SDS011;2697;42.144;24.794;2022-08-19T00:54:15;21.57;;;8.00;;
5349;SDS011;2697;42.144;24.794;2022-08-19T00:56:41;10.07;;;7.80;;
5349;SDS011;2697;42.144;24.794;2022-08-19T00:59:07;14.90;;;7.80;;
5349;SDS011;2697;42.144;24.794;2022-08-19T01:01:34;19.83;;;7.70;;
5349;SDS011;2697;42.144;24.794;2022-08-19T01:04:04;17.17;;;7.47;;
5349;SDS011;2697;42.144;24.794;2022-08-19T01:06:30;14.60;;;7.90;;
5349;SDS011;2697;42.144;24.794;2022-08-19T01:08:57;16.10;;;7.70;;
5349;SDS011;2697;42.144;24.794;2022-08-19T01:11:23;13.30;;;8.67;;
5349;SDS011;2697;42.144;24.794;2022-08-19T01:13:49;12.00;;;7.60;;
5349;SDS011;2697;42.144;24.794;2022-08-19T01:16:17;12.07;;;7.77;;
5349;SDS011;2697;42.144;24.794;2022-08-19T01:18:45;14.43;;;7.53;;
5349;SDS011;2697;42.144;24.794;2022-08-19T01:21:32;16.23;;;9.20;;
5349;SDS011;2697;42.144;24.794;2022-08-19T01:24:05;12.50;;;8.13;;
5349;SDS011;2697;42.144;24.794;2022-08-19T01:26:31;15.13;;;9.50;;
5349;SDS011;2697;42.144;24.794;2022-08-19T01:28:57;11.90;;;7.93;;
5349;SDS011;2697;42.144;24.794;2022-08-19T01:31:25;23.90;;;8.43;;
5349;SDS011;2697;42.144;24.794;2022-08-19T01:33:55;13.03;;;9.00;;
5349;SDS011;2697;42.144;24.794;2022-08-19T01:36:25;15.77;;;9.40;;
5349;SDS011;2697;42.144;24.794;2022-08-19T01:39:01;13.80;;;8.00;;
5349;SDS011;2697;42.144;24.794;2022-08-19T01:41:29;12.50;;;7.47;;
5349;SDS011;2697;42.144;24.794;2022-08-19T01:43:55;17.63;;;8.33;;
5349;SDS011;2697;42.144;24.794;2022-08-19T01:46:21;15.20;;;8.67;;
5349;SDS011;2697;42.144;24.794;2022-08-19T01:48:47;17.77;;;9.60;;
5349;SDS011;2697;42.144;24.794;2022-08-19T01:51:12;23.63;;;10.37;;
5349;SDS011;2697;42.144;24.794;2022-08-19T01:53:39;19.30;;;8.63;;
5349;SDS011;2697;42.144;24.794;2022-08-19T01:56:05;26.33;;;9.60;;
5349;SDS011;2697;42.144;24.794;2022-08-19T01:58:32;16.53;;;8.60;;
5349;SDS011;2697;42.144;24.794;2022-08-19T02:01:03;24.10;;;10.30;;
5349;SDS011;2697;42.144;24.794;2022-08-19T02:03:29;15.80;;;9.13;;
5349;SDS011;2697;42.144;24.794;2022-08-19T02:05:57;21.17;;;10.37;;
5349;SDS011;2697;42.144;24.794;2022-08-19T02:08:28;24.27;;;11.70;;
5349;SDS011;2697;42.144;24.794;2022-08-19T02:10:55;18.30;;;10.43;;
5349;SDS011;2697;42.144;24.794;2022-08-19T02:13:22;18.63;;;10.70;;
5349;SDS011;2697;42.144;24.794;2022-08-19T02:15:48;25.07;;;10.20;;
5349;SDS011;2697;42.144;24.794;2022-08-19T02:18:13;18.90;;;11.37;;
5349;SDS011;2697;42.144;24.794;2022-08-19T02:20:40;24.63;;;9.30;;
5349;SDS011;2697;42.144;24.794;2022-08-19T02:23:07;27.07;;;10.70;;
5349;SDS011;2697;42.144;24.794;2022-08-19T02:25:34;13.77;;;9.97;;
5349;SDS011;2697;42.144;24.794;2022-08-19T02:27:59;13.67;;;8.27;;
5349;SDS011;2697;42.144;24.794;2022-08-19T02:30:25;21.13;;;11.43;;
5349;SDS011;2697;42.144;24.794;2022-08-19T02:32:51;15.43;;;8.93;;
5349;SDS011;2697;42.144;24.794;2022-08-19T02:35:17;14.57;;;9.00;;
5349;SDS011;2697;42.144;24.794;2022-08-19T02:37:42;21.07;;;8.10;;
5349;SDS011;2697;42.144;24.794;2022-08-19T02:40:28;29.17;;;9.40;;
5349;SDS011;2697;42.144;24.794;2022-08-19T02:42:54;15.50;;;7.60;;
5349;SDS011;2697;42.144;24.794;2022-08-19T02:45:20;18.90;;;8.10;;
5349;SDS011;2697;42.144;24.794;2022-08-19T02:47:46;19.80;;;10.10;;
5349;SDS011;2697;42.144;24.794;2022-08-19T02:50:12;11.97;;;7.50;;
5349;SDS011;2697;42.144;24.794;2022-08-19T02:52:37;13.50;;;7.63;;
5349;SDS011;2697;42.144;24.794;2022-08-19T02:55:03;15.40;;;7.27;;
5349;SDS011;2697;42.144;24.794;2022-08-19T02:57:30;18.73;;;8.83;;
5349;SDS011;2697;42.144;24.794;2022-08-19T02:59:56;27.73;;;9.03;;
5349;SDS011;2697;42.144;24.794;2022-08-19T03:02:22;20.77;;;9.67;;
5349;SDS011;2697;42.144;24.794;2022-08-19T03:04:48;21.63;;;7.97;;
5349;SDS011;2697;42.144;24.794;2022-08-19T03:07:14;23.03;;;8.67;;
5349;SDS011;2697;42.144;24.794;2022-08-19T03:09:41;16.00;;;8.63;;
5349;SDS011;2697;42.144;24.794;2022-08-19T03:12:08;10.03;;;8.00;;
5349;SDS011;2697;42.144;24.794;2022-08-19T03:14:34;11.60;;;7.73;;
5349;SDS011;2697;42.144;24.794;2022-08-19T03:17:00;26.97;;;8.43;;
5349;SDS011;2697;42.144;24.794;2022-08-19T03:19:26;22.93;;;8.57;;
5349;SDS011;2697;42.144;24.794;2022-08-19T03:21:52;14.83;;;8.67;;
5349;SDS011;2697;42.144;24.794;2022-08-19T03:24:18;17.00;;;8.03;;
5349;SDS011;2697;42.144;24.794;2022-08-19T03:26:46;18.83;;;7.67;;
5349;SDS011;2697;42.144;24.794;2022-08-19T03:29:22;16.80;;;9.20;;
5349;SDS011;2697;42.144;24.794;2022-08-19T03:31:48;22.00;;;8.67;;
5349;SDS011;2697;42.144;24.794;2022-08-19T03:34:27;28.97;;;7.63;;
5349;SDS011;2697;42.144;24.794;2022-08-19T03:36:55;12.23;;;7.67;;
5349;SDS011;2697;42.144;24.794;2022-08-19T03:39:23;13.30;;;8.10;;
5349;SDS011;2697;42.144;24.794;2022-08-19T03:41:49;19.23;;;7.90;;
5349;SDS011;2697;42.144;24.794;2022-08-19T03:44:17;11.50;;;8.53;;
5349;SDS011;2697;42.144;24.794;2022-08-19T03:46:46;14.47;;;7.50;;
5349;SDS011;2697;42.144;24.794;2022-08-19T03:49:14;17.63;;;7.80;;
5349;SDS011;2697;42.144;24.794;2022-08-19T03:51:40;15.10;;;8.37;;
5349;SDS011;2697;42.144;24.794;2022-08-19T03:54:07;20.37;;;9.37;;
5349;SDS011;2697;42.144;24.794;2022-08-19T03:56:35;14.40;;;7.17;;
5349;SDS011;2697;42.144;24.794;2022-08-19T03:59:02;12.10;;;8.23;;
5349;SDS011;2697;42.144;24.794;2022-08-19T04:01:28;31.73;;;8.30;;
5349;SDS011;2697;42.144;24.794;2022-08-19T04:03:57;32.57;;;8.93;;
5349;SDS011;2697;42.144;24.794;2022-08-19T04:06:26;19.20;;;8.90;;
5349;SDS011;2697;42.144;24.794;2022-08-19T04:08:55;40.40;;;9.60;;
5349;SDS011;2697;42.144;24.794;2022-08-19T04:11:24;21.60;;;8.77;;
5349;SDS011;2697;42.144;24.794;2022-08-19T04:13:52;14.87;;;7.00;;
5349;SDS011;2697;42.144;24.794;2022-08-19T04:16:19;20.93;;;9.63;;
5349;SDS011;2697;42.144;24.794;2022-08-19T04:18:53;21.10;;;8.37;;
5349;SDS011;2697;42.144;24.794;2022-08-19T04:21:21;25.97;;;9.77;;
5349;SDS011;2697;42.144;24.794;2022-08-19T04:23:48;23.50;;;8.40;;
5349;SDS011;2697;42.144;24.794;2022-08-19T04:26:14;16.87;;;8.77;;
5349;SDS011;2697;42.144;24.794;2022-08-19T04:28:45;12.93;;;7.67;;
5349;SDS011;2697;42.144;24.794;2022-08-19T04:31:15;23.07;;;10.47;;
5349;SDS011;2697;42.144;24.794;2022-08-19T04:33:42;19.60;;;8.47;;
5349;SDS011;2697;42.144;24.794;2022-08-19T04:36:07;28.40;;;7.40;;
5349;SDS011;2697;42.144;24.794;2022-08-19T04:38:41;16.33;;;6.90;;
5349;SDS011;2697;42.144;24.794;2022-08-19T04:41:06;19.23;;;7.70;;
5349;SDS011;2697;42.144;24.794;2022-08-19T04:43:50;19.03;;;7.20;;
5349;SDS011;2697;42.144;24.794;2022-08-19T04:46:16;18.47;;;7.40;;
5349;SDS011;2697;42.144;24.794;2022-08-19T04:48:42;21.73;;;7.83;;
5349;SDS011;2697;42.144;24.794;2022-08-19T04:51:09;16.33;;;7.63;;
5349;SDS011;2697;42.144;24.794;2022-08-19T04:53:38;22.30;;;6.77;;
5349;SDS011;2697;42.144;24.794;2022-08-19T04:56:09;25.73;;;7.10;;
5349;SDS011;2697;42.144;24.794;2022-08-19T04:58:38;23.77;;;8.63;;
5349;SDS011;2697;42.144;24.794;2022-08-19T05:01:06;40.67;;;9.60;;
5349;SDS011;2697;42.144;24.794;2022-08-19T05:03:34;22.08;;;9.65;;
5349;SDS011;2697;42.144;24.794;2022-08-19T05:06:06;15.15;;;8.68;;
5349;SDS011;2697;42.144;24.794;2022-08-19T05:08:35;30.63;;;9.25;;
5349;SDS011;2697;42.144;24.794;2022-08-19T05:11:06;48.80;;;10.63;;
5349;SDS011;2697;42.144;24.794;2022-08-19T05:13:42;26.38;;;8.32;;
5349;SDS011;2697;42.144;24.794;2022-08-19T05:16:11;24.05;;;7.18;;
5349;SDS011;2697;42.144;24.794;2022-08-19T05:18:38;14.75;;;9.02;;
5349;SDS011;2697;42.144;24.794;2022-08-19T05:21:22;33.95;;;7.00;;
5349;SDS011;2697;42.144;24.794;2022-08-19T05:24:07;17.02;;;7.47;;
5349;SDS011;2697;42.144;24.794;2022-08-19T05:26:37;25.77;;;6.50;;
5349;SDS011;2697;42.144;24.794;2022-08-19T05:29:03;22.10;;;7.05;;
5349;SDS011;2697;42.144;24.794;2022-08-19T05:31:30;25.05;;;7.47;;
5349;SDS011;2697;42.144;24.794;2022-08-19T05:33:56;11.32;;;6.07;;
5349;SDS011;2697;42.144;24.794;2022-08-19T05:36:23;44.65;;;8.23;;
5349;SDS011;2697;42.144;24.794;2022-08-19T05:38:50;9.07;;;5.47;;
5349;SDS011;2697;42.144;24.794;2022-08-19T05:41:17;12.20;;;5.22;;
5349;SDS011;2697;42.144;24.794;2022-08-19T05:43:43;23.50;;;5.55;;
5349;SDS011;2697;42.144;24.794;2022-08-19T05:46:08;18.88;;;4.13;;
5349;SDS011;2697;42.144;24.794;2022-08-19T05:48:43;6.35;;;4.35;;
5349;SDS011;2697;42.144;24.794;2022-08-19T05:51:08;12.40;;;5.88;;
5349;SDS011;2697;42.144;24.794;2022-08-19T05:53:34;13.00;;;5.70;;
5349;SDS011;2697;42.144;24.794;2022-08-19T05:56:06;20.98;;;5.28;;
5349;SDS011;2697;42.144;24.794;2022-08-19T05:58:35;8.30;;;4.72;;
5349;SDS011;2697;42.144;24.794;2022-08-19T06:01:01;10.18;;;4.28;;
5349;SDS011;2697;42.144;24.794;2022-08-19T06:03:33;12.35;;;5.13;;
5349;SDS011;2697;42.144;24.794;2022-08-19T06:05:59;10.48;;;4.47;;
5349;SDS011;2697;42.144;24.794;2022-08-19T06:08:27;15.45;;;4.20;;
5349;SDS011;2697;42.144;24.794;2022-08-19T06:10:53;11.52;;;5.72;;
5349;SDS011;2697;42.144;24.794;2022-08-19T06:13:19;7.07;;;4.60;;
5349;SDS011;2697;42.144;24.794;2022-08-19T06:15:45;8.93;;;4.47;;
5349;SDS011;2697;42.144;24.794;2022-08-19T06:18:12;8.55;;;4.47;;
5349;SDS011;2697;42.144;24.794;2022-08-19T06:20:39;7.10;;;4.47;;
5349;SDS011;2697;42.144;24.794;2022-08-19T06:23:04;7.20;;;5.03;;
5349;SDS011;2697;42.144;24.794;2022-08-19T06:25:30;11.70;;;4.93;;
5349;SDS011;2697;42.144;24.794;2022-08-19T06:27:55;11.63;;;4.03;;
5349;SDS011;2697;42.144;24.794;2022-08-19T06:30:20;15.45;;;5.35;;
5349;SDS011;2697;42.144;24.794;2022-08-19T06:32:46;6.00;;;4.93;;
5349;SDS011;2697;42.144;24.794;2022-08-19T06:35:11;6.57;;;4.38;;
5349;SDS011;2697;42.144;24.794;2022-08-19T06:37:38;12.57;;;4.85;;
5349;SDS011;2697;42.144;24.794;2022-08-19T06:40:03;11.50;;;5.55;;
5349;SDS011;2697;42.144;24.794;2022-08-19T06:42:29;10.65;;;5.05;;
5349;SDS011;2697;42.144;24.794;2022-08-19T06:44:55;9.05;;;4.43;;
5349;SDS011;2697;42.144;24.794;2022-08-19T06:47:21;10.60;;;4.93;;
5349;SDS011;2697;42.144;24.794;2022-08-19T06:49:47;9.40;;;5.07;;
5349;SDS011;2697;42.144;24.794;2022-08-19T06:52:12;20.63;;;6.55;;
5349;SDS011;2697;42.144;24.794;2022-08-19T06:54:39;19.58;;;5.53;;
5349;SDS011;2697;42.144;24.794;2022-08-19T06:57:06;12.43;;;3.90;;
5349;SDS011;2697;42.144;24.794;2022-08-19T06:59:34;9.52;;;5.32;;
5349;SDS011;2697;42.144;24.794;2022-08-19T07:02:02;10.57;;;4.50;;
5349;SDS011;2697;42.144;24.794;2022-08-19T07:04:33;10.88;;;3.70;;
5349;SDS011;2697;42.144;24.794;2022-08-19T07:07:10;7.30;;;5.15;;
5349;SDS011;2697;42.144;24.794;2022-08-19T07:09:39;14.40;;;4.47;;
5349;SDS011;2697;42.144;24.794;2022-08-19T07:12:07;5.97;;;4.47;;
5349;SDS011;2697;42.144;24.794;2022-08-19T07:14:34;9.02;;;5.05;;
5349;SDS011;2697;42.144;24.794;2022-08-19T07:17:05;6.28;;;4.88;;
5349;SDS011;2697;42.144;24.794;2022-08-19T07:19:32;11.32;;;4.85;;
5349;SDS011;2697;42.144;24.794;2022-08-19T07:22:00;10.18;;;4.60;;
5349;SDS011;2697;42.144;24.794;2022-08-19T07:24:27;8.38;;;5.13;;
5349;SDS011;2697;42.144;24.794;2022-08-19T07:26:54;8.88;;;5.20;;
5349;SDS011;2697;42.144;24.794;2022-08-19T07:29:22;16.73;;;6.10;;
5349;SDS011;2697;42.144;24.794;2022-08-19T07:31:48;17.02;;;6.03;;
5349;SDS011;2697;42.144;24.794;2022-08-19T07:34:15;13.02;;;5.97;;
5349;SDS011;2697;42.144;24.794;2022-08-19T07:36:42;9.80;;;5.88;;
5349;SDS011;2697;42.144;24.794;2022-08-19T07:39:15;12.80;;;5.57;;
5349;SDS011;2697;42.144;24.794;2022-08-19T07:41:46;6.20;;;4.60;;
5349;SDS011;2697;42.144;24.794;2022-08-19T07:44:12;11.63;;;6.28;;
5349;SDS011;2697;42.144;24.794;2022-08-19T07:46:43;18.67;;;6.25;;
5349;SDS011;2697;42.144;24.794;2022-08-19T07:49:11;14.00;;;5.38;;
5349;SDS011;2697;42.144;24.794;2022-08-19T07:51:42;5.47;;;4.43;;
5349;SDS011;2697;42.144;24.794;2022-08-19T07:54:09;8.45;;;5.15;;
5349;SDS011;2697;42.144;24.794;2022-08-19T07:56:36;5.65;;;4.95;;
5349;SDS011;2697;42.144;24.794;2022-08-19T07:59:02;7.65;;;4.75;;
5349;SDS011;2697;42.144;24.794;2022-08-19T08:01:28;5.93;;;4.53;;
5349;SDS011;2697;42.144;24.794;2022-08-19T08:03:54;9.45;;;4.20;;
5349;SDS011;2697;42.144;24.794;2022-08-19T08:06:39;5.88;;;4.30;;
5349;SDS011;2697;42.144;24.794;2022-08-19T08:09:26;8.77;;;4.22;;
5349;SDS011;2697;42.144;24.794;2022-08-19T08:12:03;10.55;;;4.18;;
5349;SDS011;2697;42.144;24.794;2022-08-19T08:14:45;5.85;;;4.13;;
5349;SDS011;2697;42.144;24.794;2022-08-19T08:17:13;10.43;;;4.47;;
5349;SDS011;2697;42.144;24.794;2022-08-19T08:19:41;5.65;;;4.50;;
5349;SDS011;2697;42.144;24.794;2022-08-19T08:22:07;6.63;;;4.35;;
5349;SDS011;2697;42.144;24.794;2022-08-19T08:24:53;7.65;;;4.30;;
5349;SDS011;2697;42.144;24.794;2022-08-19T08:27:19;6.00;;;4.25;;
5349;SDS011;2697;42.144;24.794;2022-08-19T08:29:45;10.93;;;5.20;;
5349;SDS011;2697;42.144;24.794;2022-08-19T08:32:10;11.38;;;4.97;;
5349;SDS011;2697;42.144;24.794;2022-08-19T08:34:35;6.03;;;3.78;;
5349;SDS011;2697;42.144;24.794;2022-08-19T08:37:02;5.18;;;4.47;;
5349;SDS011;2697;42.144;24.794;2022-08-19T08:39:28;9.20;;;5.18;;
5349;SDS011;2697;42.144;24.794;2022-08-19T08:47:15;6.75;;;4.68;;
5349;SDS011;2697;42.144;24.794;2022-08-19T08:49:45;5.97;;;4.80;;
5349;SDS011;2697;42.144;24.794;2022-08-19T08:52:22;8.02;;;4.20;;
5349;SDS011;2697;42.144;24.794;2022-08-19T08:54:51;8.77;;;3.83;;
5349;SDS011;2697;42.144;24.794;2022-08-19T08:57:23;5.55;;;4.32;;
5349;SDS011;2697;42.144;24.794;2022-08-19T08:59:53;4.85;;;3.67;;
5349;SDS011;2697;42.144;24.794;2022-08-19T09:02:22;14.38;;;5.22;;
5349;SDS011;2697;42.144;24.794;2022-08-19T09:04:47;10.32;;;5.50;;
5349;SDS011;2697;42.144;24.794;2022-08-19T09:09:49;5.28;;;4.30;;
5349;SDS011;2697;42.144;24.794;2022-08-19T09:15:01;7.05;;;4.50;;
5349;SDS011;2697;42.144;24.794;2022-08-19T09:17:33;10.80;;;4.70;;
5349;SDS011;2697;42.144;24.794;2022-08-19T09:20:08;4.90;;;4.43;;
5349;SDS011;2697;42.144;24.794;2022-08-19T09:22:42;10.23;;;4.75;;
5349;SDS011;2697;42.144;24.794;2022-08-19T09:25:09;8.63;;;4.93;;
5349;SDS011;2697;42.144;24.794;2022-08-19T09:27:38;10.50;;;4.63;;
5349;SDS011;2697;42.144;24.794;2022-08-19T09:30:05;6.40;;;4.78;;
5349;SDS011;2697;42.144;24.794;2022-08-19T09:32:32;15.00;;;5.15;;
5349;SDS011;2697;42.144;24.794;2022-08-19T09:34:58;20.20;;;4.53;;
5349;SDS011;2697;42.144;24.794;2022-08-19T09:37:25;5.28;;;3.35;;
5349;SDS011;2697;42.144;24.794;2022-08-19T09:39:51;8.95;;;4.57;;
5349;SDS011;2697;42.144;24.794;2022-08-19T09:42:17;9.98;;;4.72;;
5349;SDS011;2697;42.144;24.794;2022-08-19T09:44:43;5.05;;;4.32;;
5349;SDS011;2697;42.144;24.794;2022-08-19T09:47:09;7.55;;;4.25;;
5349;SDS011;2697;42.144;24.794;2022-08-19T09:49:36;6.32;;;4.45;;
5349;SDS011;2697;42.144;24.794;2022-08-19T09:52:04;26.95;;;4.65;;
5349;SDS011;2697;42.144;24.794;2022-08-19T09:54:30;8.38;;;4.47;;
5349;SDS011;2697;42.144;24.794;2022-08-19T09:56:57;24.55;;;4.18;;
5349;SDS011;2697;42.144;24.794;2022-08-19T09:59:25;6.40;;;4.22;;
5349;SDS011;2697;42.144;24.794;2022-08-19T10:01:50;5.30;;;3.50;;
5349;SDS011;2697;42.144;24.794;2022-08-19T10:04:16;3.63;;;3.22;;
5349;SDS011;2697;42.144;24.794;2022-08-19T10:06:42;5.72;;;5.13;;
5349;SDS011;2697;42.144;24.794;2022-08-19T10:09:08;7.13;;;3.70;;
5349;SDS011;2697;42.144;24.794;2022-08-19T10:11:35;7.10;;;5.00;;
5349;SDS011;2697;42.144;24.794;2022-08-19T10:14:02;8.02;;;4.22;;
5349;SDS011;2697;42.144;24.794;2022-08-19T10:16:30;6.43;;;4.25;;
5349;SDS011;2697;42.144;24.794;2022-08-19T10:18:56;7.35;;;4.25;;
5349;SDS011;2697;42.144;24.794;2022-08-19T10:21:23;7.32;;;4.03;;
5349;SDS011;2697;42.144;24.794;2022-08-19T10:23:54;6.60;;;4.22;;
5349;SDS011;2697;42.144;24.794;2022-08-19T10:26:23;9.70;;;4.55;;
5349;SDS011;2697;42.144;24.794;2022-08-19T10:28:52;6.20;;;4.55;;
5349;SDS011;2697;42.144;24.794;2022-08-19T10:31:20;9.63;;;4.32;;
5349;SDS011;2697;42.144;24.794;2022-08-19T10:33:48;5.95;;;4.40;;
5349;SDS011;2697;42.144;24.794;2022-08-19T10:36:16;6.63;;;4.43;;
5349;SDS011;2697;42.144;24.794;2022-08-19T10:38:44;8.60;;;3.80;;
5349;SDS011;2697;42.144;24.794;2022-08-19T10:41:13;6.35;;;3.30;;
5349;SDS011;2697;42.144;24.794;2022-08-19T10:43:43;7.93;;;3.95;;
5349;SDS011;2697;42.144;24.794;2022-08-19T10:46:11;6.07;;;4.20;;
5349;SDS011;2697;42.144;24.794;2022-08-19T10:48:38;14.18;;;4.07;;
5349;SDS011;2697;42.144;24.794;2022-08-19T10:51:05;7.05;;;4.53;;
5349;SDS011;2697;42.144;24.794;2022-08-19T10:53:49;5.30;;;3.75;;
5349;SDS011;2697;42.144;24.794;2022-08-19T10:56:15;6.85;;;5.00;;
5349;SDS011;2697;42.144;24.794;2022-08-19T10:59:00;12.68;;;3.90;;
5349;SDS011;2697;42.144;24.794;2022-08-19T11:01:27;3.85;;;3.38;;
5349;SDS011;2697;42.144;24.794;2022-08-19T11:03:54;5.90;;;4.05;;
5349;SDS011;2697;42.144;24.794;2022-08-19T11:06:21;12.60;;;3.70;;
5349;SDS011;2697;42.144;24.794;2022-08-19T11:08:46;7.53;;;3.80;;
5349;SDS011;2697;42.144;24.794;2022-08-19T11:11:12;6.95;;;3.78;;
5349;SDS011;2697;42.144;24.794;2022-08-19T11:13:38;4.57;;;3.72;;
5349;SDS011;2697;42.144;24.794;2022-08-19T11:16:10;5.13;;;4.03;;
5349;SDS011;2697;42.144;24.794;2022-08-19T11:18:40;3.63;;;3.15;;
5349;SDS011;2697;42.144;24.794;2022-08-19T11:21:10;5.25;;;4.40;;
5349;SDS011;2697;42.144;24.794;2022-08-19T11:23:42;10.02;;;4.38;;
5349;SDS011;2697;42.144;24.794;2022-08-19T11:26:08;8.82;;;3.90;;
5349;SDS011;2697;42.144;24.794;2022-08-19T11:28:33;3.55;;;3.25;;
5349;SDS011;2697;42.144;24.794;2022-08-19T11:30:59;4.88;;;3.75;;
5349;SDS011;2697;42.144;24.794;2022-08-19T11:33:24;5.93;;;3.58;;
5349;SDS011;2697;42.144;24.794;2022-08-19T11:35:51;4.03;;;3.67;;
5349;SDS011;2697;42.144;24.794;2022-08-19T11:38:17;4.65;;;3.80;;
5349;SDS011;2697;42.144;24.794;2022-08-19T11:40:43;3.97;;;3.63;;
5349;SDS011;2697;42.144;24.794;2022-08-19T11:43:09;7.43;;;4.07;;
5349;SDS011;2697;42.144;24.794;2022-08-19T11:45:34;8.23;;;3.95;;
5349;SDS011;2697;42.144;24.794;2022-08-19T11:48:00;6.20;;;3.70;;
5349;SDS011;2697;42.144;24.794;2022-08-19T11:50:26;8.02;;;3.97;;
5349;SDS011;2697;42.144;24.794;2022-08-19T11:52:55;4.68;;;4.22;;
5349;SDS011;2697;42.144;24.794;2022-08-19T11:55:21;7.43;;;3.70;;
5349;SDS011;2697;42.144;24.794;2022-08-19T11:57:48;9.32;;;4.82;;
5349;SDS011;2697;42.144;24.794;2022-08-19T12:00:13;8.05;;;4.03;;
5349;SDS011;2697;42.144;24.794;2022-08-19T12:02:39;9.73;;;4.78;;
5349;SDS011;2697;42.144;24.794;2022-08-19T12:05:05;32.83;;;4.38;;
5349;SDS011;2697;42.144;24.794;2022-08-19T12:07:32;7.63;;;3.25;;
5349;SDS011;2697;42.144;24.794;2022-08-19T12:09:58;4.97;;;4.43;;
5349;SDS011;2697;42.144;24.794;2022-08-19T12:12:25;5.72;;;3.75;;
5349;SDS011;2697;42.144;24.794;2022-08-19T12:14:52;7.63;;;3.60;;
5349;SDS011;2697;42.144;24.794;2022-08-19T12:17:24;5.57;;;3.78;;
5349;SDS011;2697;42.144;24.794;2022-08-19T12:19:51;4.70;;;3.78;;
5349;SDS011;2697;42.144;24.794;2022-08-19T12:22:17;7.47;;;3.72;;
5349;SDS011;2697;42.144;24.794;2022-08-19T12:24:42;3.72;;;3.42;;
5349;SDS011;2697;42.144;24.794;2022-08-19T12:27:08;9.70;;;4.65;;
5349;SDS011;2697;42.144;24.794;2022-08-19T12:29:33;4.80;;;3.75;;
5349;SDS011;2697;42.144;24.794;2022-08-19T12:31:59;7.50;;;3.33;;
5349;SDS011;2697;42.144;24.794;2022-08-19T12:34:26;6.85;;;4.68;;
5349;SDS011;2697;42.144;24.794;2022-08-19T12:36:55;10.88;;;3.65;;
5349;SDS011;2697;42.144;24.794;2022-08-19T12:39:22;7.10;;;4.70;;
5349;SDS011;2697;42.144;24.794;2022-08-19T12:41:47;6.93;;;4.32;;
5349;SDS011;2697;42.144;24.794;2022-08-19T12:44:14;4.75;;;3.58;;
5349;SDS011;2697;42.144;24.794;2022-08-19T12:46:39;16.90;;;3.92;;
5349;SDS011;2697;42.144;24.794;2022-08-19T12:49:05;3.17;;;2.97;;
5349;SDS011;2697;42.144;24.794;2022-08-19T12:51:30;3.72;;;3.28;;
5349;SDS011;2697;42.144;24.794;2022-08-19T12:53:56;12.93;;;3.90;;
5349;SDS011;2697;42.144;24.794;2022-08-19T12:56:22;7.22;;;5.13;;
5349;SDS011;2697;42.144;24.794;2022-08-19T12:58:47;5.32;;;3.53;;
5349;SDS011;2697;42.144;24.794;2022-08-19T13:01:13;4.93;;;3.47;;
5349;SDS011;2697;42.144;24.794;2022-08-19T13:03:41;9.45;;;4.93;;
5349;SDS011;2697;42.144;24.794;2022-08-19T13:06:08;4.55;;;4.07;;
5349;SDS011;2697;42.144;24.794;2022-08-19T13:08:34;5.97;;;3.70;;
5349;SDS011;2697;42.144;24.794;2022-08-19T13:13:59;8.02;;;3.47;;
5349;SDS011;2697;42.144;24.794;2022-08-19T13:16:25;5.40;;;3.88;;
5349;SDS011;2697;42.144;24.794;2022-08-19T13:18:52;5.47;;;3.83;;
5349;SDS011;2697;42.144;24.794;2022-08-19T13:21:20;5.90;;;3.22;;
5349;SDS011;2697;42.144;24.794;2022-08-19T13:23:50;3.15;;;2.95;;
5349;SDS011;2697;42.144;24.794;2022-08-19T13:26:16;4.68;;;4.28;;
5349;SDS011;2697;42.144;24.794;2022-08-19T13:28:43;4.43;;;4.00;;
5349;SDS011;2697;42.144;24.794;2022-08-19T13:31:29;6.95;;;4.10;;
5349;SDS011;2697;42.144;24.794;2022-08-19T13:34:15;10.10;;;4.22;;
5349;SDS011;2697;42.144;24.794;2022-08-19T13:36:42;8.73;;;4.78;;
5349;SDS011;2697;42.144;24.794;2022-08-19T13:39:08;7.35;;;3.78;;
5349;SDS011;2697;42.144;24.794;2022-08-19T13:41:35;5.65;;;4.03;;
5349;SDS011;2697;42.144;24.794;2022-08-19T13:44:01;7.90;;;3.35;;
5349;SDS011;2697;42.144;24.794;2022-08-19T13:46:27;7.28;;;4.43;;
5349;SDS011;2697;42.144;24.794;2022-08-19T13:48:54;6.18;;;3.70;;
5349;SDS011;2697;42.144;24.794;2022-08-19T13:51:21;7.55;;;4.28;;
5349;SDS011;2697;42.144;24.794;2022-08-19T13:53:46;8.00;;;3.97;;
5349;SDS011;2697;42.144;24.794;2022-08-19T13:56:13;4.40;;;3.47;;
5349;SDS011;2697;42.144;24.794;2022-08-19T13:58:41;15.32;;;5.28;;
5349;SDS011;2697;42.144;24.794;2022-08-19T14:01:06;3.95;;;3.63;;
5349;SDS011;2697;42.144;24.794;2022-08-19T14:03:33;9.75;;;3.42;;
5349;SDS011;2697;42.144;24.794;2022-08-19T14:05:59;5.82;;;4.10;;
5349;SDS011;2697;42.144;24.794;2022-08-19T14:08:25;3.70;;;3.38;;
5349;SDS011;2697;42.144;24.794;2022-08-19T14:10:52;7.15;;;3.72;;
5349;SDS011;2697;42.144;24.794;2022-08-19T14:13:19;4.22;;;3.85;;
5349;SDS011;2697;42.144;24.794;2022-08-19T14:15:47;4.32;;;3.85;;
5349;SDS011;2697;42.144;24.794;2022-08-19T14:18:13;5.63;;;3.55;;
5349;SDS011;2697;42.144;24.794;2022-08-19T14:20:39;11.88;;;4.35;;
5349;SDS011;2697;42.144;24.794;2022-08-19T14:23:05;6.00;;;4.25;;
5349;SDS011;2697;42.144;24.794;2022-08-19T14:25:31;8.93;;;3.35;;
5349;SDS011;2697;42.144;24.794;2022-08-19T14:27:59;5.35;;;4.13;;
5349;SDS011;2697;42.144;24.794;2022-08-19T14:30:29;5.63;;;3.60;;
5349;SDS011;2697;42.144;24.794;2022-08-19T14:32:57;8.65;;;4.40;;
5349;SDS011;2697;42.144;24.794;2022-08-19T14:35:25;7.95;;;3.92;;
5349;SDS011;2697;42.144;24.794;2022-08-19T14:37:51;8.02;;;4.78;;
5349;SDS011;2697;42.144;24.794;2022-08-19T14:40:21;4.80;;;3.78;;
5349;SDS011;2697;42.144;24.794;2022-08-19T14:42:51;6.55;;;3.63;;
5349;SDS011;2697;42.144;24.794;2022-08-19T14:45:24;3.47;;;3.17;;
5349;SDS011;2697;42.144;24.794;2022-08-19T14:47:51;4.65;;;3.88;;
5349;SDS011;2697;42.144;24.794;2022-08-19T14:50:17;6.35;;;4.07;;
5349;SDS011;2697;42.144;24.794;2022-08-19T14:52:43;4.47;;;3.58;;
5349;SDS011;2697;42.144;24.794;2022-08-19T14:55:09;6.30;;;3.72;;
5349;SDS011;2697;42.144;24.794;2022-08-19T14:57:35;5.40;;;4.55;;
5349;SDS011;2697;42.144;24.794;2022-08-19T15:00:01;8.60;;;2.83;;
5349;SDS011;2697;42.144;24.794;2022-08-19T15:02:27;4.47;;;4.00;;
5349;SDS011;2697;42.144;24.794;2022-08-19T15:04:52;5.82;;;4.25;;
5349;SDS011;2697;42.144;24.794;2022-08-19T15:07:20;7.45;;;4.65;;
5349;SDS011;2697;42.144;24.794;2022-08-19T15:09:48;5.18;;;3.60;;
5349;SDS011;2697;42.144;24.794;2022-08-19T15:12:15;11.60;;;4.80;;